sensor_id;sensor_type;location;lat;lon;timestamp;temperature;humidity
76120;DHT22;64852;48.092;-1.640;2022-12-04T00:00:40;8.10;99.90
76120;DHT22;64852;48.092;-1.640;2022-12-04T00:03:06;8.10;99.90
76120;DHT22;64852;48.092;-1.640;2022-12-04T00:05:31;8.10;99.90
76120;DHT22;64852;48.092;-1.640;2022-12-04T00:07:57;8.10;99.90
76120;DHT22;64852;48.092;-1.640;2022-12-04T00:10:23;8.10;99.90
76120;DHT22;64852;48.092;-1.640;2022-12-04T00:12:48;8.20;99.90
76120;DHT22;64852;48.092;-1.640;2022-12-04T00:15:14;8.10;99.90
76120;DHT22;64852;48.092;-1.640;2022-12-04T00:17:40;8.30;99.90
76120;DHT22;64852;48.092;-1.640;2022-12-04T00:20:06;8.20;99.90
76120;DHT22;64852;48.092;-1.640;2022-12-04T00:22:32;8.20;99.90
76120;DHT22;64852;48.092;-1.640;2022-12-04T00:24:57;8.10;99.90
76120;DHT22;64852;48.092;-1.640;2022-12-04T00:27:23;8.00;99.90
76120;DHT22;64852;48.092;-1.640;2022-12-04T00:29:49;8.00;99.90
76120;DHT22;64852;48.092;-1.640;2022-12-04T00:32:14;8.00;99.90
76120;DHT22;64852;48.092;-1.640;2022-12-04T00:34:40;8.10;99.90
76120;DHT22;64852;48.092;-1.640;2022-12-04T00:37:06;8.10;99.90
76120;DHT22;64852;48.092;-1.640;2022-12-04T00:39:31;8.00;99.90
76120;DHT22;64852;48.092;-1.640;2022-12-04T00:41:57;8.00;99.90
76120;DHT22;64852;48.092;-1.640;2022-12-04T00:44:22;8.00;99.90
76120;DHT22;64852;48.092;-1.640;2022-12-04T00:46:48;8.20;99.90
76120;DHT22;64852;48.092;-1.640;2022-12-04T00:49:14;8.40;99.90
76120;DHT22;64852;48.092;-1.640;2022-12-04T00:51:39;8.10;99.90
76120;DHT22;64852;48.092;-1.640;2022-12-04T00:54:05;8.10;99.90
76120;DHT22;64852;48.092;-1.640;2022-12-04T00:56:30;8.20;99.90
76120;DHT22;64852;48.092;-1.640;2022-12-04T00:58:58;8.10;99.90
76120;DHT22;64852;48.092;-1.640;2022-12-04T01:01:24;8.10;99.90
76120;DHT22;64852;48.092;-1.640;2022-12-04T01:03:50;8.00;99.90
76120;DHT22;64852;48.092;-1.640;2022-12-04T01:06:30;8.40;99.90
76120;DHT22;64852;48.092;-1.640;2022-12-04T01:08:57;8.10;99.90
76120;DHT22;64852;48.092;-1.640;2022-12-04T01:11:25;8.10;99.90
76120;DHT22;64852;48.092;-1.640;2022-12-04T01:13:51;8.20;99.90
76120;DHT22;64852;48.092;-1.640;2022-12-04T01:16:27;8.10;99.90
76120;DHT22;64852;48.092;-1.640;2022-12-04T01:18:52;8.40;99.90
76120;DHT22;64852;48.092;-1.640;2022-12-04T01:21:18;8.30;99.90
76120;DHT22;64852;48.092;-1.640;2022-12-04T01:23:44;8.20;99.90
76120;DHT22;64852;48.092;-1.640;2022-12-04T01:26:11;8.60;99.90
76120;DHT22;64852;48.092;-1.640;2022-12-04T01:28:37;8.20;99.90
76120;DHT22;64852;48.092;-1.640;2022-12-04T01:33:31;8.00;99.90
76120;DHT22;64852;48.092;-1.640;2022-12-04T01:35:58;8.30;99.90
76120;DHT22;64852;48.092;-1.640;2022-12-04T01:38:25;8.00;99.90
76120;DHT22;64852;48.092;-1.640;2022-12-04T01:40:51;8.00;99.90
76120;DHT22;64852;48.092;-1.640;2022-12-04T01:43:17;8.00;99.90
76120;DHT22;64852;48.092;-1.640;2022-12-04T01:45:54;8.00;99.90
76120;DHT22;64852;48.092;-1.640;2022-12-04T01:48:39;8.00;99.90
76120;DHT22;64852;48.092;-1.640;2022-12-04T01:51:21;7.90;99.90
76120;DHT22;64852;48.092;-1.640;2022-12-04T01:53:52;7.90;99.90
76120;DHT22;64852;48.092;-1.640;2022-12-04T01:56:21;7.90;99.90
76120;DHT22;64852;48.092;-1.640;2022-12-04T01:58:52;8.00;99.90
76120;DHT22;64852;48.092;-1.640;2022-12-04T02:01:19;7.90;99.90
76120;DHT22;64852;48.092;-1.640;2022-12-04T02:03:45;8.00;99.90
76120;DHT22;64852;48.092;-1.640;2022-12-04T02:06:11;8.50;99.90
76120;DHT22;64852;48.092;-1.640;2022-12-04T02:08:37;8.00;99.90
76120;DHT22;64852;48.092;-1.640;2022-12-04T02:11:17;8.00;99.90
76120;DHT22;64852;48.092;-1.640;2022-12-04T02:13:53;7.90;99.90
76120;DHT22;64852;48.092;-1.640;2022-12-04T02:16:50;8.10;99.90
76120;DHT22;64852;48.092;-1.640;2022-12-04T02:22:00;7.90;99.90
76120;DHT22;64852;48.092;-1.640;2022-12-04T02:24:52;7.80;99.90
76120;DHT22;64852;48.092;-1.640;2022-12-04T02:30:11;7.90;99.90
76120;DHT22;64852;48.092;-1.640;2022-12-04T02:32:54;7.80;99.90
76120;DHT22;64852;48.092;-1.640;2022-12-04T02:38:31;7.90;99.90
76120;DHT22;64852;48.092;-1.640;2022-12-04T02:41:16;7.90;99.90
76120;DHT22;64852;48.092;-1.640;2022-12-04T02:43:45;7.80;99.90
76120;DHT22;64852;48.092;-1.640;2022-12-04T02:48:44;7.90;99.90
76120;DHT22;64852;48.092;-1.640;2022-12-04T02:51:13;8.90;99.90
76120;DHT22;64852;48.092;-1.640;2022-12-04T02:53:46;8.00;99.90
76120;DHT22;64852;48.092;-1.640;2022-12-04T02:56:18;7.90;99.90
76120;DHT22;64852;48.092;-1.640;2022-12-04T03:01:20;7.90;99.90
76120;DHT22;64852;48.092;-1.640;2022-12-04T03:03:55;7.90;99.90
76120;DHT22;64852;48.092;-1.640;2022-12-04T03:06:23;8.00;99.90
76120;DHT22;64852;48.092;-1.640;2022-12-04T03:09:05;7.90;99.90
76120;DHT22;64852;48.092;-1.640;2022-12-04T03:11:34;7.90;99.90
76120;DHT22;64852;48.092;-1.640;2022-12-04T03:14:16;7.80;99.90
76120;DHT22;64852;48.092;-1.640;2022-12-04T03:16:43;7.90;99.90
76120;DHT22;64852;48.092;-1.640;2022-12-04T03:19:20;7.90;99.90
76120;DHT22;64852;48.092;-1.640;2022-12-04T03:21:55;7.90;99.90
76120;DHT22;64852;48.092;-1.640;2022-12-04T03:24:40;8.00;99.90
76120;DHT22;64852;48.092;-1.640;2022-12-04T03:37:38;8.00;99.90
76120;DHT22;64852;48.092;-1.640;2022-12-04T03:40:19;8.00;99.90
76120;DHT22;64852;48.092;-1.640;2022-12-04T03:42:53;7.90;99.90
76120;DHT22;64852;48.092;-1.640;2022-12-04T03:45:35;8.00;99.90
76120;DHT22;64852;48.092;-1.640;2022-12-04T03:48:14;8.00;99.90
76120;DHT22;64852;48.092;-1.640;2022-12-04T03:50:49;7.90;99.90
76120;DHT22;64852;48.092;-1.640;2022-12-04T03:53:21;7.80;99.90
76120;DHT22;64852;48.092;-1.640;2022-12-04T03:56:06;7.90;99.90
76120;DHT22;64852;48.092;-1.640;2022-12-04T03:58:36;7.90;99.90
76120;DHT22;64852;48.092;-1.640;2022-12-04T04:01:06;9.00;99.90
76120;DHT22;64852;48.092;-1.640;2022-12-04T04:03:45;7.90;99.90
76120;DHT22;64852;48.092;-1.640;2022-12-04T04:06:16;8.10;99.90
76120;DHT22;64852;48.092;-1.640;2022-12-04T04:08:47;8.00;99.90
76120;DHT22;64852;48.092;-1.640;2022-12-04T04:11:27;8.40;99.90
76120;DHT22;64852;48.092;-1.640;2022-12-04T04:14:04;7.90;99.90
76120;DHT22;64852;48.092;-1.640;2022-12-04T04:17:01;8.00;99.90
76120;DHT22;64852;48.092;-1.640;2022-12-04T04:19:51;8.70;99.90
76120;DHT22;64852;48.092;-1.640;2022-12-04T04:22:37;7.70;99.90
76120;DHT22;64852;48.092;-1.640;2022-12-04T04:25:24;7.90;99.90
76120;DHT22;64852;48.092;-1.640;2022-12-04T04:27:56;7.80;99.90
76120;DHT22;64852;48.092;-1.640;2022-12-04T04:30:23;7.80;99.90
76120;DHT22;64852;48.092;-1.640;2022-12-04T04:33:05;8.40;99.90
76120;DHT22;64852;48.092;-1.640;2022-12-04T04:38:27;7.50;99.90
76120;DHT22;64852;48.092;-1.640;2022-12-04T04:43:36;7.70;99.90
76120;DHT22;64852;48.092;-1.640;2022-12-04T04:46:09;8.20;99.90
76120;DHT22;64852;48.092;-1.640;2022-12-04T04:48:42;7.80;99.90
76120;DHT22;64852;48.092;-1.640;2022-12-04T04:51:09;7.90;99.90
76120;DHT22;64852;48.092;-1.640;2022-12-04T04:53:37;7.90;99.90
76120;DHT22;64852;48.092;-1.640;2022-12-04T04:56:03;7.80;99.90
76120;DHT22;64852;48.092;-1.640;2022-12-04T04:58:29;7.70;99.90
76120;DHT22;64852;48.092;-1.640;2022-12-04T05:03:23;7.80;99.90
76120;DHT22;64852;48.092;-1.640;2022-12-04T05:05:49;7.80;99.90
76120;DHT22;64852;48.092;-1.640;2022-12-04T05:08:14;8.20;99.90
76120;DHT22;64852;48.092;-1.640;2022-12-04T05:10:40;7.90;99.90
76120;DHT22;64852;48.092;-1.640;2022-12-04T05:13:05;7.90;99.90
76120;DHT22;64852;48.092;-1.640;2022-12-04T05:15:31;7.80;99.90
76120;DHT22;64852;48.092;-1.640;2022-12-04T05:17:57;8.20;99.90
76120;DHT22;64852;48.092;-1.640;2022-12-04T05:20:22;8.30;99.90
76120;DHT22;64852;48.092;-1.640;2022-12-04T05:22:48;7.90;99.90
76120;DHT22;64852;48.092;-1.640;2022-12-04T05:25:13;8.00;99.90
76120;DHT22;64852;48.092;-1.640;2022-12-04T05:27:39;7.80;99.90
76120;DHT22;64852;48.092;-1.640;2022-12-04T05:30:05;7.90;99.90
76120;DHT22;64852;48.092;-1.640;2022-12-04T05:32:31;7.90;99.90
76120;DHT22;64852;48.092;-1.640;2022-12-04T05:34:57;7.90;99.90
76120;DHT22;64852;48.092;-1.640;2022-12-04T05:37:23;7.80;99.90
76120;DHT22;64852;48.092;-1.640;2022-12-04T05:39:49;7.90;99.90
76120;DHT22;64852;48.092;-1.640;2022-12-04T05:42:15;8.00;99.90
76120;DHT22;64852;48.092;-1.640;2022-12-04T05:44:41;7.90;99.90
76120;DHT22;64852;48.092;-1.640;2022-12-04T05:47:06;7.90;99.90
76120;DHT22;64852;48.092;-1.640;2022-12-04T05:49:33;8.00;99.90
76120;DHT22;64852;48.092;-1.640;2022-12-04T05:52:00;8.10;99.90
76120;DHT22;64852;48.092;-1.640;2022-12-04T05:54:25;7.80;99.90
76120;DHT22;64852;48.092;-1.640;2022-12-04T05:56:51;7.90;99.90
76120;DHT22;64852;48.092;-1.640;2022-12-04T05:59:17;7.80;99.90
76120;DHT22;64852;48.092;-1.640;2022-12-04T06:01:43;7.70;99.90
76120;DHT22;64852;48.092;-1.640;2022-12-04T06:04:09;7.70;99.90
76120;DHT22;64852;48.092;-1.640;2022-12-04T06:06:35;7.80;99.90
76120;DHT22;64852;48.092;-1.640;2022-12-04T06:09:03;7.80;99.90
76120;DHT22;64852;48.092;-1.640;2022-12-04T06:11:34;7.70;99.90
76120;DHT22;64852;48.092;-1.640;2022-12-04T06:14:01;7.80;99.90
76120;DHT22;64852;48.092;-1.640;2022-12-04T06:16:38;7.80;99.90
76120;DHT22;64852;48.092;-1.640;2022-12-04T06:19:17;7.70;99.90
76120;DHT22;64852;48.092;-1.640;2022-12-04T06:21:45;7.70;99.90
76120;DHT22;64852;48.092;-1.640;2022-12-04T06:24:16;7.70;99.90
76120;DHT22;64852;48.092;-1.640;2022-12-04T06:26:42;7.80;99.90
76120;DHT22;64852;48.092;-1.640;2022-12-04T06:29:09;7.80;99.90
76120;DHT22;64852;48.092;-1.640;2022-12-04T06:31:35;8.30;99.90
76120;DHT22;64852;48.092;-1.640;2022-12-04T06:34:03;7.80;99.90
76120;DHT22;64852;48.092;-1.640;2022-12-04T06:36:29;7.80;99.90
76120;DHT22;64852;48.092;-1.640;2022-12-04T06:38:56;7.90;99.90
76120;DHT22;64852;48.092;-1.640;2022-12-04T06:41:24;8.90;99.90
76120;DHT22;64852;48.092;-1.640;2022-12-04T06:43:50;7.90;99.90
76120;DHT22;64852;48.092;-1.640;2022-12-04T06:46:24;8.00;99.90
76120;DHT22;64852;48.092;-1.640;2022-12-04T06:48:50;7.90;99.90
76120;DHT22;64852;48.092;-1.640;2022-12-04T06:51:18;8.00;99.90
76120;DHT22;64852;48.092;-1.640;2022-12-04T06:53:45;8.80;99.90
76120;DHT22;64852;48.092;-1.640;2022-12-04T06:56:12;8.20;99.90
76120;DHT22;64852;48.092;-1.640;2022-12-04T06:58:38;8.00;99.90
76120;DHT22;64852;48.092;-1.640;2022-12-04T07:01:09;8.00;99.90
76120;DHT22;64852;48.092;-1.640;2022-12-04T07:03:36;8.60;99.90
76120;DHT22;64852;48.092;-1.640;2022-12-04T07:06:25;8.00;99.90
76120;DHT22;64852;48.092;-1.640;2022-12-04T07:08:56;7.90;99.90
76120;DHT22;64852;48.092;-1.640;2022-12-04T07:11:21;8.00;99.90
76120;DHT22;64852;48.092;-1.640;2022-12-04T07:13:48;9.00;99.90
76120;DHT22;64852;48.092;-1.640;2022-12-04T07:16:15;8.00;99.90
76120;DHT22;64852;48.092;-1.640;2022-12-04T07:18:41;7.90;99.90
76120;DHT22;64852;48.092;-1.640;2022-12-04T07:21:09;7.90;99.90
76120;DHT22;64852;48.092;-1.640;2022-12-04T07:23:35;8.10;99.90
76120;DHT22;64852;48.092;-1.640;2022-12-04T07:26:09;7.90;99.90
76120;DHT22;64852;48.092;-1.640;2022-12-04T07:28:35;7.80;99.90
76120;DHT22;64852;48.092;-1.640;2022-12-04T07:31:15;7.80;99.90
76120;DHT22;64852;48.092;-1.640;2022-12-04T07:33:41;7.90;99.90
76120;DHT22;64852;48.092;-1.640;2022-12-04T07:36:10;7.90;99.90
76120;DHT22;64852;48.092;-1.640;2022-12-04T07:38:36;7.80;99.90
76120;DHT22;64852;48.092;-1.640;2022-12-04T07:41:03;8.80;99.90
76120;DHT22;64852;48.092;-1.640;2022-12-04T07:43:29;7.80;99.90
76120;DHT22;64852;48.092;-1.640;2022-12-04T07:45:57;7.70;99.90
76120;DHT22;64852;48.092;-1.640;2022-12-04T07:48:23;7.80;99.90
76120;DHT22;64852;48.092;-1.640;2022-12-04T07:50:49;8.60;99.90
76120;DHT22;64852;48.092;-1.640;2022-12-04T07:53:15;7.70;99.90
76120;DHT22;64852;48.092;-1.640;2022-12-04T07:55:40;7.80;99.90
76120;DHT22;64852;48.092;-1.640;2022-12-04T07:58:06;8.00;99.90
76120;DHT22;64852;48.092;-1.640;2022-12-04T08:00:32;7.80;99.90
76120;DHT22;64852;48.092;-1.640;2022-12-04T08:02:57;8.00;99.90
76120;DHT22;64852;48.092;-1.640;2022-12-04T08:05:23;7.90;99.90
76120;DHT22;64852;48.092;-1.640;2022-12-04T08:07:49;8.60;99.90
76120;DHT22;64852;48.092;-1.640;2022-12-04T08:10:14;9.00;99.90
76120;DHT22;64852;48.092;-1.640;2022-12-04T08:12:40;8.00;99.90
76120;DHT22;64852;48.092;-1.640;2022-12-04T08:15:06;7.90;99.90
76120;DHT22;64852;48.092;-1.640;2022-12-04T08:17:32;7.90;99.90
76120;DHT22;64852;48.092;-1.640;2022-12-04T08:19:58;7.90;99.90
76120;DHT22;64852;48.092;-1.640;2022-12-04T08:22:24;9.00;99.90
76120;DHT22;64852;48.092;-1.640;2022-12-04T08:24:49;8.00;99.90
76120;DHT22;64852;48.092;-1.640;2022-12-04T08:27:15;8.40;99.90
76120;DHT22;64852;48.092;-1.640;2022-12-04T08:29:41;7.80;99.90
76120;DHT22;64852;48.092;-1.640;2022-12-04T08:32:06;8.00;99.90
76120;DHT22;64852;48.092;-1.640;2022-12-04T08:34:32;8.70;99.90
76120;DHT22;64852;48.092;-1.640;2022-12-04T08:36:58;8.00;99.90
76120;DHT22;64852;48.092;-1.640;2022-12-04T08:39:24;8.00;99.90
76120;DHT22;64852;48.092;-1.640;2022-12-04T08:41:50;8.00;99.90
76120;DHT22;64852;48.092;-1.640;2022-12-04T08:44:15;8.10;99.90
76120;DHT22;64852;48.092;-1.640;2022-12-04T08:46:41;8.10;99.90
76120;DHT22;64852;48.092;-1.640;2022-12-04T08:49:07;8.60;99.90
76120;DHT22;64852;48.092;-1.640;2022-12-04T08:51:33;8.10;99.90
76120;DHT22;64852;48.092;-1.640;2022-12-04T08:54:04;8.10;99.90
76120;DHT22;64852;48.092;-1.640;2022-12-04T08:56:31;8.10;99.90
76120;DHT22;64852;48.092;-1.640;2022-12-04T08:58:58;8.20;99.90
76120;DHT22;64852;48.092;-1.640;2022-12-04T09:01:24;8.10;99.90
76120;DHT22;64852;48.092;-1.640;2022-12-04T09:03:50;8.10;99.90
76120;DHT22;64852;48.092;-1.640;2022-12-04T09:06:16;8.40;99.90
76120;DHT22;64852;48.092;-1.640;2022-12-04T09:08:42;8.20;99.90
76120;DHT22;64852;48.092;-1.640;2022-12-04T09:11:16;8.10;99.90
76120;DHT22;64852;48.092;-1.640;2022-12-04T09:13:43;8.10;99.90
76120;DHT22;64852;48.092;-1.640;2022-12-04T09:16:14;8.10;99.90
76120;DHT22;64852;48.092;-1.640;2022-12-04T09:18:40;8.00;99.90
76120;DHT22;64852;48.092;-1.640;2022-12-04T09:21:09;8.20;99.90
76120;DHT22;64852;48.092;-1.640;2022-12-04T09:23:36;9.10;99.90
76120;DHT22;64852;48.092;-1.640;2022-12-04T09:26:04;8.30;99.90
76120;DHT22;64852;48.092;-1.640;2022-12-04T09:28:30;7.40;99.90
76120;DHT22;64852;48.092;-1.640;2022-12-04T09:31:03;8.30;99.90
76120;DHT22;64852;48.092;-1.640;2022-12-04T09:33:29;8.40;99.90
76120;DHT22;64852;48.092;-1.640;2022-12-04T09:35:58;8.50;99.90
76120;DHT22;64852;48.092;-1.640;2022-12-04T09:38:24;8.50;99.90
76120;DHT22;64852;48.092;-1.640;2022-12-04T09:44:14;8.40;99.90
76120;DHT22;64852;48.092;-1.640;2022-12-04T09:46:49;8.50;99.90
76120;DHT22;64852;48.092;-1.640;2022-12-04T09:49:25;9.50;99.90
76120;DHT22;64852;48.092;-1.640;2022-12-04T09:51:54;8.50;99.90
76120;DHT22;64852;48.092;-1.640;2022-12-04T09:54:25;8.60;99.90
76120;DHT22;64852;48.092;-1.640;2022-12-04T09:56:59;8.90;99.90
76120;DHT22;64852;48.092;-1.640;2022-12-04T09:59:27;8.70;99.90
76120;DHT22;64852;48.092;-1.640;2022-12-04T10:02:02;9.20;99.90
76120;DHT22;64852;48.092;-1.640;2022-12-04T10:04:31;8.70;99.90
76120;DHT22;64852;48.092;-1.640;2022-12-04T10:07:15;8.60;99.90
76120;DHT22;64852;48.092;-1.640;2022-12-04T10:25:59;8.60;99.90
76120;DHT22;64852;48.092;-1.640;2022-12-04T10:28:40;8.70;99.90
76120;DHT22;64852;48.092;-1.640;2022-12-04T10:31:13;8.70;99.90
76120;DHT22;64852;48.092;-1.640;2022-12-04T10:33:52;8.70;99.90
76120;DHT22;64852;48.092;-1.640;2022-12-04T10:36:22;8.80;99.90
76120;DHT22;64852;48.092;-1.640;2022-12-04T10:39:02;8.80;99.90
76120;DHT22;64852;48.092;-1.640;2022-12-04T10:42:19;8.80;99.90
76120;DHT22;64852;48.092;-1.640;2022-12-04T10:44:19;8.80;99.90
76120;DHT22;64852;48.092;-1.640;2022-12-04T10:46:45;8.80;99.90
76120;DHT22;64852;48.092;-1.640;2022-12-04T10:51:41;8.90;99.90
76120;DHT22;64852;48.092;-1.640;2022-12-04T10:54:30;8.90;99.90
76120;DHT22;64852;48.092;-1.640;2022-12-04T10:57:04;8.90;99.90
76120;DHT22;64852;48.092;-1.640;2022-12-04T10:59:30;8.90;99.90
76120;DHT22;64852;48.092;-1.640;2022-12-04T11:04:58;9.00;99.90
76120;DHT22;64852;48.092;-1.640;2022-12-04T11:07:27;9.10;99.90
76120;DHT22;64852;48.092;-1.640;2022-12-04T11:10:21;9.20;99.90
76120;DHT22;64852;48.092;-1.640;2022-12-04T11:13:02;9.20;99.90
76120;DHT22;64852;48.092;-1.640;2022-12-04T11:15:29;9.30;99.90
76120;DHT22;64852;48.092;-1.640;2022-12-04T11:18:05;9.40;99.90
76120;DHT22;64852;48.092;-1.640;2022-12-04T11:20:30;9.50;99.90
76120;DHT22;64852;48.092;-1.640;2022-12-04T11:22:57;9.60;99.90
76120;DHT22;64852;48.092;-1.640;2022-12-04T11:25:29;9.70;99.90
76120;DHT22;64852;48.092;-1.640;2022-12-04T11:28:00;9.60;99.90
76120;DHT22;64852;48.092;-1.640;2022-12-04T11:30:37;9.70;99.90
76120;DHT22;64852;48.092;-1.640;2022-12-04T11:33:06;9.70;99.90
76120;DHT22;64852;48.092;-1.640;2022-12-04T11:35:39;9.70;99.90
76120;DHT22;64852;48.092;-1.640;2022-12-04T11:38:14;9.60;99.90
76120;DHT22;64852;48.092;-1.640;2022-12-04T11:40:48;9.70;99.90
76120;DHT22;64852;48.092;-1.640;2022-12-04T11:43:17;9.60;99.90
76120;DHT22;64852;48.092;-1.640;2022-12-04T11:46:02;9.70;99.90
76120;DHT22;64852;48.092;-1.640;2022-12-04T11:48:29;9.80;99.90
76120;DHT22;64852;48.092;-1.640;2022-12-04T11:56:32;9.70;99.90
76120;DHT22;64852;48.092;-1.640;2022-12-04T12:01:46;9.80;99.90
76120;DHT22;64852;48.092;-1.640;2022-12-04T12:07:14;9.90;99.90
76120;DHT22;64852;48.092;-1.640;2022-12-04T12:13:06;9.80;99.90
76120;DHT22;64852;48.092;-1.640;2022-12-04T12:16:14;9.70;99.90
76120;DHT22;64852;48.092;-1.640;2022-12-04T12:24:30;10.00;99.90
76120;DHT22;64852;48.092;-1.640;2022-12-04T12:43:40;9.80;99.90
76120;DHT22;64852;48.092;-1.640;2022-12-04T12:46:33;9.80;99.90
76120;DHT22;64852;48.092;-1.640;2022-12-04T12:49:13;9.80;99.90
76120;DHT22;64852;48.092;-1.640;2022-12-04T12:51:56;9.80;99.90
76120;DHT22;64852;48.092;-1.640;2022-12-04T12:54:32;9.80;99.90
76120;DHT22;64852;48.092;-1.640;2022-12-04T12:57:27;9.80;99.90
76120;DHT22;64852;48.092;-1.640;2022-12-04T13:00:03;9.80;99.90
76120;DHT22;64852;48.092;-1.640;2022-12-04T13:02:35;9.70;99.90
76120;DHT22;64852;48.092;-1.640;2022-12-04T13:05:08;9.70;99.90
76120;DHT22;64852;48.092;-1.640;2022-12-04T13:07:46;9.60;99.90
76120;DHT22;64852;48.092;-1.640;2022-12-04T13:10:17;9.60;99.90
76120;DHT22;64852;48.092;-1.640;2022-12-04T13:12:57;9.50;99.90
76120;DHT22;64852;48.092;-1.640;2022-12-04T13:15:34;9.50;99.90
76120;DHT22;64852;48.092;-1.640;2022-12-04T13:18:03;9.60;99.90
76120;DHT22;64852;48.092;-1.640;2022-12-04T13:20:36;9.50;99.90
76120;DHT22;64852;48.092;-1.640;2022-12-04T13:29:07;9.50;99.90
76120;DHT22;64852;48.092;-1.640;2022-12-04T13:34:40;9.40;99.90
76120;DHT22;64852;48.092;-1.640;2022-12-04T13:42:34;9.30;99.90
76120;DHT22;64852;48.092;-1.640;2022-12-04T13:45:05;9.20;99.90
76120;DHT22;64852;48.092;-1.640;2022-12-04T13:47:34;9.30;99.90
76120;DHT22;64852;48.092;-1.640;2022-12-04T13:52:44;9.20;99.90
76120;DHT22;64852;48.092;-1.640;2022-12-04T13:55:25;9.20;99.90
76120;DHT22;64852;48.092;-1.640;2022-12-04T13:57:55;9.10;99.90
76120;DHT22;64852;48.092;-1.640;2022-12-04T14:00:32;9.00;99.90
76120;DHT22;64852;48.092;-1.640;2022-12-04T14:03:26;9.00;99.90
76120;DHT22;64852;48.092;-1.640;2022-12-04T14:05:50;9.10;99.90
76120;DHT22;64852;48.092;-1.640;2022-12-04T14:10:55;9.10;99.90
76120;DHT22;64852;48.092;-1.640;2022-12-04T14:13:26;9.10;99.90
76120;DHT22;64852;48.092;-1.640;2022-12-04T14:16:46;9.10;99.90
76120;DHT22;64852;48.092;-1.640;2022-12-04T14:19:04;9.00;99.90
76120;DHT22;64852;48.092;-1.640;2022-12-04T14:21:45;9.10;99.90
76120;DHT22;64852;48.092;-1.640;2022-12-04T14:24:31;9.10;99.90
76120;DHT22;64852;48.092;-1.640;2022-12-04T14:26:57;9.10;99.90
76120;DHT22;64852;48.092;-1.640;2022-12-04T14:29:45;9.10;99.90
76120;DHT22;64852;48.092;-1.640;2022-12-04T14:32:21;9.20;99.90
76120;DHT22;64852;48.092;-1.640;2022-12-04T14:34:48;9.20;99.90
76120;DHT22;64852;48.092;-1.640;2022-12-04T14:37:38;9.30;99.90
76120;DHT22;64852;48.092;-1.640;2022-12-04T14:40:06;9.20;99.90
76120;DHT22;64852;48.092;-1.640;2022-12-04T14:42:40;9.30;99.90
76120;DHT22;64852;48.092;-1.640;2022-12-04T14:45:33;9.20;99.90
76120;DHT22;64852;48.092;-1.640;2022-12-04T14:48:14;9.20;99.90
76120;DHT22;64852;48.092;-1.640;2022-12-04T14:53:40;9.20;99.90
76120;DHT22;64852;48.092;-1.640;2022-12-04T14:59:15;9.30;99.90
76120;DHT22;64852;48.092;-1.640;2022-12-04T15:01:41;9.30;99.90
76120;DHT22;64852;48.092;-1.640;2022-12-04T15:04:22;9.30;99.90
76120;DHT22;64852;48.092;-1.640;2022-12-04T15:06:50;9.20;99.90
76120;DHT22;64852;48.092;-1.640;2022-12-04T15:09:20;9.20;99.90
76120;DHT22;64852;48.092;-1.640;2022-12-04T15:12:30;9.30;99.90
76120;DHT22;64852;48.092;-1.640;2022-12-04T15:15:23;9.30;99.90
76120;DHT22;64852;48.092;-1.640;2022-12-04T15:23:17;9.20;99.90
76120;DHT22;64852;48.092;-1.640;2022-12-04T15:25:51;9.20;99.90
76120;DHT22;64852;48.092;-1.640;2022-12-04T15:28:20;9.30;99.90
76120;DHT22;64852;48.092;-1.640;2022-12-04T15:30:47;9.20;99.90
76120;DHT22;64852;48.092;-1.640;2022-12-04T15:33:14;9.20;99.90
76120;DHT22;64852;48.092;-1.640;2022-12-04T15:35:46;9.10;99.90
76120;DHT22;64852;48.092;-1.640;2022-12-04T15:38:14;9.30;99.90
76120;DHT22;64852;48.092;-1.640;2022-12-04T15:40:58;9.10;99.90
76120;DHT22;64852;48.092;-1.640;2022-12-04T15:43:37;9.10;99.90
76120;DHT22;64852;48.092;-1.640;2022-12-04T15:46:25;9.00;99.90
76120;DHT22;64852;48.092;-1.640;2022-12-04T15:49:04;9.10;99.90
76120;DHT22;64852;48.092;-1.640;2022-12-04T15:51:30;9.00;99.90
76120;DHT22;64852;48.092;-1.640;2022-12-04T15:53:56;9.10;99.90
76120;DHT22;64852;48.092;-1.640;2022-12-04T15:56:22;9.10;99.90
76120;DHT22;64852;48.092;-1.640;2022-12-04T15:58:57;9.10;99.90
76120;DHT22;64852;48.092;-1.640;2022-12-04T16:01:24;9.20;99.90
76120;DHT22;64852;48.092;-1.640;2022-12-04T16:03:53;9.20;99.90
76120;DHT22;64852;48.092;-1.640;2022-12-04T16:08:57;9.20;99.90
76120;DHT22;64852;48.092;-1.640;2022-12-04T16:11:31;9.30;99.90
76120;DHT22;64852;48.092;-1.640;2022-12-04T16:16:34;9.30;99.90
76120;DHT22;64852;48.092;-1.640;2022-12-04T16:19:27;9.20;99.90
76120;DHT22;64852;48.092;-1.640;2022-12-04T16:21:54;9.20;99.90
76120;DHT22;64852;48.092;-1.640;2022-12-04T16:24:20;9.20;99.90
76120;DHT22;64852;48.092;-1.640;2022-12-04T16:26:49;9.10;99.90
76120;DHT22;64852;48.092;-1.640;2022-12-04T16:29:15;9.10;99.90
76120;DHT22;64852;48.092;-1.640;2022-12-04T16:31:41;9.10;99.90
76120;DHT22;64852;48.092;-1.640;2022-12-04T16:34:08;9.20;99.90
76120;DHT22;64852;48.092;-1.640;2022-12-04T16:36:35;9.10;99.90
76120;DHT22;64852;48.092;-1.640;2022-12-04T16:39:01;9.10;99.90
76120;DHT22;64852;48.092;-1.640;2022-12-04T16:41:27;9.20;99.90
76120;DHT22;64852;48.092;-1.640;2022-12-04T16:43:59;9.20;99.90
76120;DHT22;64852;48.092;-1.640;2022-12-04T16:46:27;9.20;99.90
76120;DHT22;64852;48.092;-1.640;2022-12-04T16:48:53;9.20;99.90
76120;DHT22;64852;48.092;-1.640;2022-12-04T16:51:24;9.20;99.90
76120;DHT22;64852;48.092;-1.640;2022-12-04T16:53:51;9.20;99.90
76120;DHT22;64852;48.092;-1.640;2022-12-04T16:56:17;9.10;99.90
76120;DHT22;64852;48.092;-1.640;2022-12-04T16:58:43;9.10;99.90
76120;DHT22;64852;48.092;-1.640;2022-12-04T17:01:24;9.20;99.90
76120;DHT22;64852;48.092;-1.640;2022-12-04T17:03:50;9.10;99.90
76120;DHT22;64852;48.092;-1.640;2022-12-04T17:06:16;9.10;99.90
76120;DHT22;64852;48.092;-1.640;2022-12-04T17:08:42;9.00;99.90
76120;DHT22;64852;48.092;-1.640;2022-12-04T17:11:11;9.10;99.90
76120;DHT22;64852;48.092;-1.640;2022-12-04T17:13:37;9.10;99.90
76120;DHT22;64852;48.092;-1.640;2022-12-04T17:16:03;9.20;99.90
76120;DHT22;64852;48.092;-1.640;2022-12-04T17:18:29;9.10;99.90
76120;DHT22;64852;48.092;-1.640;2022-12-04T17:20:54;9.00;99.90
76120;DHT22;64852;48.092;-1.640;2022-12-04T17:23:20;9.10;99.90
76120;DHT22;64852;48.092;-1.640;2022-12-04T17:25:46;9.00;99.90
76120;DHT22;64852;48.092;-1.640;2022-12-04T17:28:11;9.00;99.90
76120;DHT22;64852;48.092;-1.640;2022-12-04T17:30:37;9.00;99.90
76120;DHT22;64852;48.092;-1.640;2022-12-04T17:33:03;9.00;99.90
76120;DHT22;64852;48.092;-1.640;2022-12-04T17:35:29;9.00;99.90
76120;DHT22;64852;48.092;-1.640;2022-12-04T17:37:55;9.10;99.90
76120;DHT22;64852;48.092;-1.640;2022-12-04T17:40:20;8.90;99.90
76120;DHT22;64852;48.092;-1.640;2022-12-04T17:42:46;9.10;99.90
76120;DHT22;64852;48.092;-1.640;2022-12-04T17:45:12;9.10;99.90
76120;DHT22;64852;48.092;-1.640;2022-12-04T17:47:38;9.10;99.90
76120;DHT22;64852;48.092;-1.640;2022-12-04T17:50:05;9.10;99.90
76120;DHT22;64852;48.092;-1.640;2022-12-04T17:52:31;9.20;99.90
76120;DHT22;64852;48.092;-1.640;2022-12-04T17:54:57;9.10;99.90
76120;DHT22;64852;48.092;-1.640;2022-12-04T17:57:23;9.20;99.90
76120;DHT22;64852;48.092;-1.640;2022-12-04T17:59:48;9.20;99.90
76120;DHT22;64852;48.092;-1.640;2022-12-04T18:02:14;9.20;99.90
76120;DHT22;64852;48.092;-1.640;2022-12-04T18:04:40;9.10;99.90